Chebba, Tunisia
Current Conditions -  °F | °C
As of 2:30 AM on Saturday 25 Oct 2014 (Local Time) from DTMB Reporting Station
Few Clouds Few Clouds  
Wind Chill: 64°   Ceiling: Unl
Heat Index: 64°   Visibility: 5mi
Dew Point: 54°   Wind: 6mph
Humidity: 68%   Direction: 230°SW
Pressure: 30.03"   Gusts: NA
Location:  35.24°N, 11.12°E
Report Text: DTMB 250130Z 23005KT 190V250 8000 FEW020 18/12 Q1017
Loading
Personal Weather Stations






























Interactive Weather Map
Tropical Storm Tracking
New forecast layout! Learn more

10-Day Weather Forecast

Advertisements
Track Severe Weather on mobile